Time;durP1;ratioP1;P1;durP2;ratioP2;P2;SDS_P1;SDS_P2;PMS_P1;PMS_P2;Temp;Humidity;BMP_temperature;BMP_pressure;BME280_temperature;BME280_humidity;BME280_pressure;Samples;Min_cycle;Max_cycle;Signal;HPM_P1;HPM_P2
2022/11/08 00:03:28;;;;;;;5.10;2.17;;;-11.10;99.90;;;;;;5096780;28;20570;-73
2022/11/08 00:14:07;;;;;;;4.53;1.90;;;-8.90;99.90;;;;;;5090360;28;20600;-72
2022/11/08 00:16:33;;;;;;;3.07;2.67;;;-7.40;99.90;;;;;;5094360;28;20210;-74
2022/11/08 00:19:00;;;;;;;9.47;2.40;;;-6.60;99.90;;;;;;5096489;28;20210;-70
2022/11/08 00:21:26;;;;;;;8.67;2.57;;;-6.20;99.90;;;;;;5087853;28;20274;-71
2022/11/08 00:23:52;;;;;;;4.03;2.03;;;-8.10;99.90;;;;;;5089816;28;20178;-72
2022/11/08 00:26:18;;;;;;;5.17;2.43;;;-7.10;99.90;;;;;;5089807;28;20182;-71
2022/11/08 00:28:44;;;;;;;5.97;2.40;;;-7.40;99.90;;;;;;5088946;28;20190;-71
2022/11/08 00:31:09;;;;;;;6.07;1.60;;;-8.10;99.90;;;;;;5088569;28;20234;-72
2022/11/08 00:33:36;;;;;;;11.43;2.37;;;-7.70;99.90;;;;;;5096530;28;20202;-72
2022/11/08 00:36:03;;;;;;;3.50;1.87;;;-9.10;99.90;;;;;;5096042;28;20232;-72
2022/11/08 00:38:28;;;;;;;4.80;1.93;;;-6.10;99.90;;;;;;5090380;28;20178;-71
2022/11/08 00:40:54;;;;;;;9.97;2.60;;;-10.40;99.90;;;;;;5087113;28;20187;-72
2022/11/08 00:43:20;;;;;;;3.53;2.50;;;-11.10;99.90;;;;;;5084023;28;20182;-72
2022/11/08 00:45:46;;;;;;;4.00;2.47;;;-10.70;99.90;;;;;;5092919;28;20186;-74
2022/11/08 00:48:12;;;;;;;7.23;2.47;;;-9.60;99.90;;;;;;5095266;28;20508;-72
2022/11/08 00:50:38;;;;;;;9.43;2.83;;;-11.80;99.90;;;;;;5096103;28;20202;-72
2022/11/08 00:53:04;;;;;;;7.47;2.20;;;-11.40;99.90;;;;;;5090050;28;20189;-72
2022/11/08 00:55:30;;;;;;;5.03;2.20;;;-11.30;99.90;;;;;;5095551;28;20499;-71
2022/11/08 00:57:56;;;;;;;7.30;2.80;;;-10.20;99.90;;;;;;5083879;28;20219;-73
2022/11/08 01:00:22;;;;;;;5.67;2.10;;;-9.10;99.90;;;;;;5094232;28;20258;-72
2022/11/08 01:03:17;;;;;;;6.10;2.30;;;-9.80;99.90;;;;;;5094586;28;20190;-73
2022/11/08 01:05:36;;;;;;;8.30;2.33;;;-6.30;99.90;;;;;;5091303;28;20194;-71
2022/11/08 01:08:02;;;;;;;7.60;2.10;;;-11.60;99.90;;;;;;5087312;28;20195;-71
2022/11/08 01:10:28;;;;;;;6.23;2.33;;;-11.10;99.90;;;;;;5095935;28;20200;-70
2022/11/08 01:12:53;;;;;;;6.30;2.23;;;-9.70;99.90;;;;;;5084726;28;20171;-71
2022/11/08 01:15:19;;;;;;;5.20;1.90;;;-8.30;99.90;;;;;;5085259;28;20187;-71
2022/11/08 01:17:45;;;;;;;6.80;2.10;;;-10.80;99.90;;;;;;5086384;28;20170;-71
2022/11/08 01:20:11;;;;;;;9.67;2.87;;;-9.30;99.90;;;;;;5088755;28;20178;-73
2022/11/08 01:22:37;;;;;;;5.50;2.60;;;-9.00;99.90;;;;;;5095898;28;20182;-70
2022/11/08 01:25:03;;;;;;;6.10;2.70;;;-7.50;99.90;;;;;;5091886;28;20183;-71
2022/11/08 01:27:28;;;;;;;3.60;2.33;;;-8.10;99.90;;;;;;5095401;28;20188;-72
2022/11/08 01:29:54;;;;;;;7.93;2.57;;;-10.20;99.90;;;;;;5089499;28;20506;-74
2022/11/08 01:32:20;;;;;;;6.33;2.60;;;-7.90;99.90;;;;;;5091786;28;20233;-74
2022/11/08 01:34:45;;;;;;;2.60;1.93;;;-7.00;99.90;;;;;;5092629;28;20183;-73
2022/11/08 01:37:11;;;;;;;5.97;2.17;;;-6.50;99.90;;;;;;5090541;28;20174;-71
2022/11/08 01:39:37;;;;;;;10.23;3.87;;;-6.10;99.90;;;;;;5090812;28;20186;-69
2022/11/08 01:42:03;;;;;;;9.20;3.20;;;-6.90;99.90;;;;;;5095656;28;20265;-71
2022/11/08 01:44:28;;;;;;;6.87;2.97;;;-8.60;99.90;;;;;;5095687;28;20630;-74
2022/11/08 01:46:54;;;;;;;5.10;2.53;;;-9.20;99.90;;;;;;5095490;28;20182;-71
2022/11/08 01:49:25;;;;;;;4.83;2.97;;;-7.70;99.90;;;;;;5095630;28;20199;-71
2022/11/08 01:52:12;;;;;;;3.43;2.20;;;-9.20;99.90;;;;;;5095760;28;20511;-73
2022/11/08 01:54:50;;;;;;;4.73;1.93;;;-10.20;99.90;;;;;;5095613;28;20175;-70
2022/11/08 01:57:26;;;;;;;6.53;2.00;;;-9.90;99.90;;;;;;5085659;28;20270;-72
2022/11/08 01:59:56;;;;;;;4.87;2.13;;;-12.00;99.90;;;;;;5083296;28;20175;-72
2022/11/08 02:02:22;;;;;;;8.40;1.97;;;-11.30;99.90;;;;;;5086240;28;20292;-72
2022/11/08 02:04:48;;;;;;;6.73;2.63;;;-10.10;99.90;;;;;;5093147;28;20199;-72
2022/11/08 02:07:16;;;;;;;10.23;2.17;;;-11.70;99.90;;;;;;5088274;28;20553;-71
2022/11/08 02:09:45;;;;;;;6.03;2.00;;;-9.90;99.90;;;;;;5099115;28;20614;-71
2022/11/08 02:12:12;;;;;;;9.03;2.53;;;-11.40;99.90;;;;;;5091186;28;20186;-71
2022/11/08 02:14:38;;;;;;;4.97;2.17;;;-12.60;99.90;;;;;;5097940;28;20689;-70
2022/11/08 02:17:05;;;;;;;4.73;2.20;;;-10.70;99.90;;;;;;5088294;28;20245;-72
2022/11/08 02:19:39;;;;;;;8.40;2.30;;;-11.30;99.90;;;;;;5094073;28;20273;-72
2022/11/08 02:22:11;;;;;;;6.87;1.67;;;-9.80;99.90;;;;;;5089217;28;20262;-71
2022/11/08 02:24:37;;;;;;;7.10;2.10;;;-9.40;99.90;;;;;;5098797;28;20211;-72
2022/11/08 02:27:03;;;;;;;5.23;2.53;;;-9.00;99.90;;;;;;5099069;28;20185;-74
2022/11/08 02:29:34;;;;;;;4.43;1.77;;;-10.30;99.90;;;;;;5093424;28;20202;-71
2022/11/08 02:32:02;;;;;;;1.67;1.57;;;-10.20;99.90;;;;;;5095326;28;20207;-71
2022/11/08 02:34:57;;;;;;;4.83;1.97;;;-9.80;99.90;;;;;;5082939;28;20222;-72
2022/11/08 02:37:24;;;;;;;6.73;2.33;;;-8.80;99.90;;;;;;5086514;28;20224;-73
2022/11/08 02:39:50;;;;;;;6.13;2.90;;;-10.40;99.90;;;;;;5098375;28;20612;-75
2022/11/08 02:42:19;;;;;;;4.83;2.53;;;-9.40;99.90;;;;;;5098735;28;20190;-71
2022/11/08 02:44:46;;;;;;;6.13;2.17;;;-7.60;99.90;;;;;;5091964;28;20640;-71
2022/11/08 02:47:12;;;;;;;4.70;2.43;;;-8.70;99.90;;;;;;5097293;28;20225;-71
2022/11/08 02:49:37;;;;;;;8.13;3.13;;;-8.80;99.90;;;;;;5091180;28;20199;-73
2022/11/08 02:52:03;;;;;;;3.53;2.10;;;-8.10;99.90;;;;;;5086768;28;21117;-73
2022/11/08 02:54:29;;;;;;;6.40;2.20;;;-8.10;99.90;;;;;;5098640;28;20170;-71
2022/11/08 02:56:55;;;;;;;5.43;2.50;;;-10.30;99.90;;;;;;5097314;28;20498;-73
2022/11/08 02:59:21;;;;;;;4.70;2.00;;;-6.90;99.90;;;;;;5091856;28;20206;-73
2022/11/08 03:01:46;;;;;;;2.93;1.83;;;-7.70;99.90;;;;;;5089813;28;20180;-74
2022/11/08 03:04:12;;;;;;;6.97;2.60;;;-9.10;99.90;;;;;;5097933;28;20213;-74
2022/11/08 03:06:38;;;;;;;4.00;2.87;;;-9.60;99.90;;;;;;5086148;28;20190;-71
2022/11/08 03:09:04;;;;;;;5.40;2.47;;;-8.90;99.90;;;;;;5089506;28;20285;-71
2022/11/08 03:11:29;;;;;;;5.33;2.17;;;-12.30;99.90;;;;;;5087349;28;20193;-72
2022/11/08 03:13:55;;;;;;;5.33;2.23;;;-8.80;99.90;;;;;;5093489;28;20175;-71
2022/11/08 03:16:21;;;;;;;3.00;1.70;;;-8.80;99.90;;;;;;5096879;28;20217;-73
2022/11/08 03:18:47;;;;;;;4.63;1.93;;;-11.50;99.90;;;;;;5094119;28;20231;-74
2022/11/08 03:21:12;;;;;;;3.53;2.20;;;-7.70;99.90;;;;;;5097826;28;20167;-72
2022/11/08 03:23:38;;;;;;;4.17;1.93;;;-7.20;99.90;;;;;;5090637;28;20481;-72
2022/11/08 03:26:04;;;;;;;4.87;2.30;;;-12.30;99.90;;;;;;5091164;28;20186;-71
2022/11/08 03:28:30;;;;;;;2.77;1.93;;;-8.20;99.90;;;;;;5091183;28;20232;-72
2022/11/08 03:30:56;;;;;;;10.10;2.30;;;-7.20;99.90;;;;;;5089807;28;20203;-72
2022/11/08 03:33:22;;;;;;;2.80;1.87;;;-7.60;99.90;;;;;;5097730;28;20257;-73
2022/11/08 03:35:50;;;;;;;7.77;2.30;;;-8.20;99.90;;;;;;5097538;28;20179;-70
2022/11/08 03:38:16;;;;;;;6.43;1.70;;;-7.60;99.90;;;;;;5098034;28;20182;-71
2022/11/08 03:40:42;;;;;;;6.17;2.53;;;-7.70;99.90;;;;;;5097387;28;20182;-72
2022/11/08 03:43:08;;;;;;;4.17;2.17;;;-7.80;99.90;;;;;;5097557;28;20479;-72
2022/11/08 03:45:34;;;;;;;2.40;1.50;;;-6.70;99.90;;;;;;5097008;28;20179;-72
2022/11/08 03:47:59;;;;;;;9.97;2.23;;;-10.10;99.90;;;;;;5090784;28;20193;-72
2022/11/08 03:50:25;;;;;;;5.93;2.00;;;-10.20;99.90;;;;;;5086074;28;20614;-72
2022/11/08 03:52:53;;;;;;;3.80;1.43;;;-9.90;99.90;;;;;;5086507;28;20171;-71
2022/11/08 03:55:21;;;;;;;2.67;2.00;;;-11.80;99.90;;;;;;5091516;28;20465;-71
2022/11/08 03:57:48;;;;;;;5.03;1.63;;;-11.30;99.90;;;;;;5091678;28;20175;-72
2022/11/08 04:00:17;;;;;;;8.40;2.00;;;-11.10;99.90;;;;;;5096379;28;20182;-72
2022/11/08 04:02:43;;;;;;;4.10;2.40;;;-9.30;99.90;;;;;;5096979;28;20222;-73
2022/11/08 04:05:10;;;;;;;4.47;1.60;;;-10.50;99.90;;;;;;5087842;28;20243;-71
2022/11/08 04:07:36;;;;;;;8.90;1.50;;;-8.80;99.90;;;;;;5092713;28;20200;-72
2022/11/08 04:10:07;;;;;;;2.70;1.77;;;-9.80;99.90;;;;;;5085995;28;20210;-73
2022/11/08 04:15:20;;;;;;;4.50;1.40;;;-8.70;99.90;;;;;;5089227;28;20205;-74
2022/11/08 04:23:25;;;;;;;2.53;1.60;;;-8.50;99.90;;;;;;5096503;28;20235;-72
2022/11/08 04:25:56;;;;;;;6.90;2.60;;;-10.40;99.90;;;;;;5079026;28;20190;-73
2022/11/08 04:28:24;;;;;;;4.40;1.90;;;-10.30;99.90;;;;;;5090798;28;20272;-74
2022/11/08 04:30:54;;;;;;;7.13;1.53;;;-9.70;99.90;;;;;;5091955;28;20630;-73
2022/11/08 04:33:20;;;;;;;4.93;1.97;;;-8.50;99.90;;;;;;5096466;28;20179;-72
2022/11/08 04:35:47;;;;;;;2.47;1.63;;;-8.60;99.90;;;;;;5094577;28;20216;-73
2022/11/08 04:38:13;;;;;;;4.13;1.53;;;-10.60;99.90;;;;;;5092886;28;20175;-72
2022/11/08 04:40:39;;;;;;;5.37;1.80;;;-8.80;99.90;;;;;;5089320;28;20180;-74
2022/11/08 04:43:04;;;;;;;3.83;1.37;;;-10.80;99.90;;;;;;5089172;28;20190;-74
2022/11/08 04:45:30;;;;;;;13.07;1.73;;;-12.50;99.90;;;;;;5096437;28;20231;-73
2022/11/08 04:47:56;;;;;;;3.23;1.67;;;-13.90;99.90;;;;;;5096253;28;20183;-74
2022/11/08 04:50:22;;;;;;;2.97;1.43;;;-13.00;99.90;;;;;;5088989;28;20205;-71
2022/11/08 04:52:54;;;;;;;4.13;1.60;;;-12.70;99.90;;;;;;5084580;28;20183;-72
2022/11/08 04:55:21;;;;;;;4.03;1.50;;;-12.10;99.90;;;;;;5095910;28;20459;-72
2022/11/08 04:57:47;;;;;;;3.17;2.03;;;-10.20;99.90;;;;;;5084154;28;20193;-72
2022/11/08 05:00:18;;;;;;;3.10;1.97;;;-11.10;99.90;;;;;;5085187;28;20484;-72
2022/11/08 05:02:43;;;;;;;3.30;1.83;;;-11.20;99.90;;;;;;5088037;28;20274;-72
2022/11/08 05:05:09;;;;;;;2.20;2.00;;;-11.10;99.90;;;;;;5091936;28;20271;-72
2022/11/08 05:07:35;;;;;;;5.33;1.70;;;-10.90;99.90;;;;;;5096120;28;20624;-74
2022/11/08 05:10:01;;;;;;;6.30;2.03;;;-12.10;99.90;;;;;;5092086;28;20631;-73
2022/11/08 05:12:27;;;;;;;3.70;1.63;;;-13.20;99.90;;;;;;5091444;28;20258;-73
2022/11/08 05:14:52;;;;;;;2.23;1.57;;;-14.10;99.90;;;;;;5091453;28;20182;-72
2022/11/08 05:17:18;;;;;;;4.23;1.83;;;-14.00;99.90;;;;;;5089056;28;20179;-74
2022/11/08 05:25:12;;;;;;;7.10;2.20;;;-13.30;99.90;;;;;;5095593;28;20189;-71
2022/11/08 05:27:38;;;;;;;2.13;1.30;;;-12.40;99.90;;;;;;5095863;28;20491;-71
2022/11/08 05:30:04;;;;;;;3.47;1.67;;;-10.50;99.90;;;;;;5095662;28;20579;-70
2022/11/08 05:32:30;;;;;;;2.00;1.60;;;-10.80;99.90;;;;;;5090625;28;20277;-71
2022/11/08 05:34:56;;;;;;;2.70;1.80;;;-12.00;99.90;;;;;;5095646;28;20269;-71
2022/11/08 05:37:22;;;;;;;1.47;1.33;;;-12.60;99.90;;;;;;5091154;28;20193;-73
2022/11/08 05:39:47;;;;;;;1.20;1.10;;;-12.90;99.90;;;;;;5087744;28;20215;-73
2022/11/08 05:42:13;;;;;;;4.87;2.00;;;-12.20;99.90;;;;;;5085282;28;20183;-73
2022/11/08 05:44:39;;;;;;;2.40;1.90;;;-13.40;99.90;;;;;;5093471;28;20257;-71
2022/11/08 05:47:04;;;;;;;2.33;2.13;;;-12.40;99.90;;;;;;5091065;28;20362;-71
2022/11/08 05:49:30;;;;;;;2.87;1.33;;;-12.30;99.90;;;;;;5099614;28;20327;-72
2022/11/08 05:51:56;;;;;;;3.70;1.37;;;-12.10;99.90;;;;;;5099836;28;20214;-73
2022/11/08 05:54:22;;;;;;;3.57;1.33;;;-12.40;99.90;;;;;;5085817;28;20183;-75
2022/11/08 05:56:47;;;;;;;1.30;1.20;;;-11.80;99.90;;;;;;5098296;28;20491;-73
2022/11/08 05:59:13;;;;;;;6.20;1.37;;;-10.50;99.90;;;;;;5093434;28;20196;-71
2022/11/08 06:01:39;;;;;;;3.33;1.43;;;-11.30;99.90;;;;;;5090327;28;20497;-72
2022/11/08 06:04:05;;;;;;;5.53;1.93;;;-10.70;99.90;;;;;;5090162;28;20222;-72
2022/11/08 06:06:30;;;;;;;2.60;2.27;;;-11.20;99.90;;;;;;5099599;28;20179;-72
2022/11/08 06:08:56;;;;;;;2.50;1.53;;;-10.70;99.90;;;;;;5094448;28;20227;-71
2022/11/08 06:11:25;;;;;;;3.37;1.87;;;-10.70;99.90;;;;;;5096839;28;20261;-71
2022/11/08 06:13:52;;;;;;;3.77;1.60;;;-10.60;99.90;;;;;;5089758;28;20171;-73
2022/11/08 06:16:19;;;;;;;1.97;1.87;;;-11.50;99.90;;;;;;5082696;28;20205;-71
2022/11/08 06:18:46;;;;;;;3.87;2.07;;;-9.10;99.90;;;;;;5088114;28;20175;-72
2022/11/08 06:21:14;;;;;;;2.77;2.30;;;-8.80;99.90;;;;;;5099181;28;20548;-71
2022/11/08 06:23:40;;;;;;;5.77;1.87;;;-9.60;99.90;;;;;;5098954;28;20231;-73
2022/11/08 06:26:06;;;;;;;2.63;1.97;;;-8.40;99.90;;;;;;5093763;28;20187;-71
2022/11/08 06:28:32;;;;;;;3.30;1.40;;;-8.00;99.90;;;;;;5098928;28;20181;-70
2022/11/08 06:30:59;;;;;;;6.50;1.87;;;-8.40;99.90;;;;;;5087711;28;20301;-73
2022/11/08 06:33:25;;;;;;;2.03;1.57;;;-9.50;99.90;;;;;;5092599;28;20590;-70
2022/11/08 06:35:51;;;;;;;5.60;2.20;;;-11.00;99.90;;;;;;5097797;28;20187;-72
2022/11/08 06:38:17;;;;;;;1.43;1.33;;;-10.80;99.90;;;;;;5094852;28;20174;-70
2022/11/08 06:40:43;;;;;;;1.83;1.53;;;-9.80;99.90;;;;;;5094144;28;20180;-69
2022/11/08 06:43:13;;;;;;;2.30;1.37;;;-11.10;99.90;;;;;;5091900;28;20616;-71
2022/11/08 06:45:39;;;;;;;5.37;1.83;;;-9.10;99.90;;;;;;5084552;28;20182;-71
2022/11/08 06:48:06;;;;;;;2.23;1.67;;;-10.60;99.90;;;;;;5089891;28;20182;-71
2022/11/08 06:50:33;;;;;;;3.00;1.60;;;-10.40;99.90;;;;;;5083352;28;20207;-70
2022/11/08 06:53:01;;;;;;;4.93;2.30;;;-9.80;99.90;;;;;;5093022;28;20261;-75
2022/11/08 06:55:28;;;;;;;2.57;1.60;;;-9.10;99.90;;;;;;5096687;28;20205;-73
2022/11/08 06:57:54;;;;;;;4.33;1.43;;;-9.00;99.90;;;;;;5093702;28;20388;-71
2022/11/08 07:00:21;;;;;;;2.70;1.67;;;-8.80;99.90;;;;;;5097297;28;20195;-71
2022/11/08 07:02:58;;;;;;;2.93;1.97;;;-8.80;99.90;;;;;;5091262;28;20198;-70
2022/11/08 07:05:26;;;;;;;1.50;1.43;;;-7.40;99.90;;;;;;5093451;28;20179;-72
2022/11/08 07:07:51;;;;;;;4.90;1.40;;;-7.00;99.90;;;;;;5092452;28;20232;-72
2022/11/08 07:10:22;;;;;;;4.17;1.73;;;-7.40;99.90;;;;;;5091077;28;20542;-70
2022/11/08 07:12:56;;;;;;;3.50;1.67;;;-7.60;99.90;;;;;;5097908;28;20202;-71
2022/11/08 07:15:22;;;;;;;2.63;1.90;;;-7.50;99.90;;;;;;5097946;28;20224;-71
2022/11/08 07:17:48;;;;;;;4.90;1.67;;;-8.90;99.90;;;;;;5097068;28;20183;-72
2022/11/08 07:20:14;;;;;;;1.67;1.53;;;-10.60;99.90;;;;;;5097925;28;20178;-71
2022/11/08 07:22:39;;;;;;;2.07;1.70;;;-15.40;99.90;;;;;;5097669;28;20654;-73
2022/11/08 07:25:06;;;;;;;1.83;1.40;;;-11.30;99.90;;;;;;5098078;28;20204;-71
2022/11/08 07:27:32;;;;;;;6.43;1.43;;;-10.50;99.90;;;;;;5093086;28;20171;-69
2022/11/08 07:29:59;;;;;;;3.90;2.13;;;-8.00;99.90;;;;;;5089269;28;20216;-73
2022/11/08 07:32:25;;;;;;;5.43;2.33;;;-8.10;99.90;;;;;;5085146;28;20211;-71
2022/11/08 07:34:50;;;;;;;4.40;1.77;;;-7.40;99.90;;;;;;5090752;28;20186;-70
2022/11/08 07:37:16;;;;;;;3.23;1.60;;;-7.70;99.90;;;;;;5087996;28;20215;-72
2022/11/08 07:39:42;;;;;;;1.67;1.40;;;-10.70;99.90;;;;;;5097734;28;20592;-70
2022/11/08 07:42:08;;;;;;;1.47;1.20;;;-12.70;99.90;;;;;;5093789;28;20567;-72
2022/11/08 07:44:34;;;;;;;2.50;1.90;;;-13.70;99.90;;;;;;5089730;28;20590;-70
2022/11/08 07:46:59;;;;;;;1.87;1.70;;;-12.40;99.90;;;;;;5088920;28;20186;-72
2022/11/08 07:49:25;;;;;;;4.27;1.63;;;-12.40;99.90;;;;;;5090701;28;20512;-71
2022/11/08 07:51:51;;;;;;;3.40;2.27;;;-13.80;99.90;;;;;;5087669;28;20582;-70
2022/11/08 07:54:17;;;;;;;3.20;1.70;;;-13.70;99.90;;;;;;5096410;28;20204;-70
2022/11/08 07:56:42;;;;;;;6.37;1.47;;;-12.40;99.90;;;;;;5097235;28;20185;-70
2022/11/08 07:59:08;;;;;;;3.30;1.77;;;-11.40;99.90;;;;;;5090848;28;20178;-72
2022/11/08 08:01:34;;;;;;;3.70;1.30;;;-10.40;99.90;;;;;;5090596;28;20183;-70
2022/11/08 08:04:00;;;;;;;7.00;2.17;;;-11.10;99.90;;;;;;5081659;28;20735;-74
2022/11/08 08:06:26;;;;;;;5.27;1.97;;;-10.90;99.90;;;;;;5091380;28;20182;-73
2022/11/08 08:08:51;;;;;;;3.93;1.33;;;-12.00;99.90;;;;;;5096954;28;20206;-73
2022/11/08 08:11:18;;;;;;;1.40;1.30;;;-11.70;99.90;;;;;;5097080;28;20182;-73
2022/11/08 08:13:43;;;;;;;3.10;2.00;;;-11.60;99.90;;;;;;5090665;28;20177;-74
2022/11/08 08:16:09;;;;;;;2.23;1.47;;;-11.20;99.90;;;;;;5097172;28;20538;-72
2022/11/08 08:18:35;;;;;;;6.17;2.50;;;-10.90;99.90;;;;;;5086918;28;20175;-75
2022/11/08 08:21:01;;;;;;;2.17;1.53;;;-12.30;99.90;;;;;;5092695;28;20185;-73
2022/11/08 08:23:27;;;;;;;2.10;1.33;;;-14.60;99.90;;;;;;5096731;28;20185;-73
2022/11/08 08:25:52;;;;;;;4.70;2.07;;;-13.70;99.90;;;;;;5091160;28;20591;-72
2022/11/08 08:28:18;;;;;;;2.00;1.77;;;-15.10;99.90;;;;;;5092437;28;20183;-74
2022/11/08 08:30:44;;;;;;;10.33;1.70;;;-15.50;99.90;;;;;;5092032;28;20286;-70
2022/11/08 08:33:16;;;;;;;2.97;1.50;;;-15.00;99.90;;;;;;5083296;28;20190;-69
2022/11/08 08:35:42;;;;;;;2.03;1.53;;;-17.80;99.90;;;;;;5085307;28;20186;-70
2022/11/08 08:38:09;;;;;;;3.10;1.60;;;-14.40;99.90;;;;;;5079292;28;20183;-72
2022/11/08 08:40:35;;;;;;;5.03;2.10;;;-15.00;99.90;;;;;;5095933;28;20196;-72
2022/11/08 08:43:02;;;;;;;3.87;1.50;;;-13.60;99.90;;;;;;5090972;28;20182;-71
2022/11/08 08:45:28;;;;;;;2.50;1.20;;;-11.30;99.90;;;;;;5095849;28;20216;-72
2022/11/08 08:47:56;;;;;;;3.83;1.50;;;-15.80;99.90;;;;;;5088668;28;20186;-71
2022/11/08 08:50:23;;;;;;;4.10;1.70;;;-15.60;99.90;;;;;;5091036;28;20224;-72
2022/11/08 08:52:49;;;;;;;4.97;2.27;;;-11.70;99.90;;;;;;5095281;28;20177;-71
2022/11/08 08:55:16;;;;;;;2.23;1.57;;;-15.30;99.90;;;;;;5090026;28;20477;-69
2022/11/08 08:57:46;;;;;;;5.97;1.90;;;-14.30;99.90;;;;;;5091939;28;20536;-70
2022/11/08 09:00:13;;;;;;;3.43;1.83;;;-12.30;99.90;;;;;;5092878;28;20234;-69
2022/11/08 09:02:39;;;;;;;6.73;1.70;;;-11.80;99.90;;;;;;5095664;28;20201;-71
2022/11/08 09:05:05;;;;;;;1.70;1.50;;;-14.70;99.90;;;;;;5095725;28;20211;-71
2022/11/08 09:07:30;;;;;;;2.67;1.77;;;-15.00;99.90;;;;;;5096547;28;20193;-71
2022/11/08 09:09:56;;;;;;;7.17;1.77;;;-11.00;99.90;;;;;;5095953;28;20285;-70
2022/11/08 09:12:22;;;;;;;3.07;1.40;;;-12.50;99.90;;;;;;5096034;28;20459;-70
2022/11/08 09:14:48;;;;;;;29.33;6.90;;;-12.60;99.90;;;;;;5095182;28;20193;-71
2022/11/08 09:17:13;;;;;;;19.67;5.60;;;-12.80;99.90;;;;;;5087840;28;20223;-70
2022/11/08 09:19:39;;;;;;;6.03;2.17;;;-15.00;99.90;;;;;;5085878;28;20590;-70
2022/11/08 09:22:05;;;;;;;2.77;2.37;;;-15.00;99.90;;;;;;5082757;28;20186;-69
2022/11/08 09:24:33;;;;;;;4.63;2.50;;;-9.40;99.90;;;;;;5089843;28;20307;-69
2022/11/08 09:27:02;;;;;;;2.27;2.03;;;-9.70;99.90;;;;;;5095463;28;20236;-70
2022/11/08 09:29:29;;;;;;;2.87;1.90;;;-12.90;99.90;;;;;;5090933;28;20292;-70
2022/11/08 09:31:55;;;;;;;1.40;1.30;;;-10.10;99.90;;;;;;5081254;28;20218;-70
2022/11/08 09:34:21;;;;;;;3.07;2.17;;;-15.80;99.90;;;;;;5092758;28;20217;-69
2022/11/08 09:36:48;;;;;;;5.40;2.63;;;-13.30;99.90;;;;;;5088446;28;20212;-70
2022/11/08 09:39:13;;;;;;;3.00;1.83;;;-14.30;99.90;;;;;;5089112;28;20190;-69
2022/11/08 09:41:57;;;;;;;4.03;1.70;;;-15.90;99.90;;;;;;5086611;28;20189;-68
2022/11/08 09:44:42;;;;;;;5.73;1.80;;;-16.70;99.90;;;;;;5094394;28;20186;-69
2022/11/08 09:47:22;;;;;;;1.83;1.73;;;-12.20;99.90;;;;;;5088869;28;20183;-69
2022/11/08 09:50:21;;;;;;;3.03;1.80;;;-14.90;99.90;;;;;;5095362;28;20309;-70
2022/11/08 09:53:13;;;;;;;4.03;2.00;;;-15.00;99.90;;;;;;5078116;28;20236;-69
2022/11/08 09:56:12;;;;;;;3.90;1.53;;;-14.50;99.90;;;;;;5081238;28;20191;-69
2022/11/08 09:59:01;;;;;;;4.70;1.83;;;-14.50;99.90;;;;;;5088502;28;20635;-71
2022/11/08 10:01:32;;;;;;;3.40;1.77;;;-11.00;99.90;;;;;;5095184;28;20181;-69
2022/11/08 10:04:04;;;;;;;1.87;1.70;;;-9.90;99.90;;;;;;5088043;28;20660;-68
2022/11/08 10:07:03;;;;;;;4.70;2.13;;;-10.20;99.90;;;;;;5095781;28;20259;-70
2022/11/08 10:09:50;;;;;;;3.07;1.43;;;-11.10;99.90;;;;;;5081687;28;20198;-69
2022/11/08 10:12:15;;;;;;;5.00;2.17;;;-10.20;99.90;;;;;;5089855;28;20182;-70
2022/11/08 10:14:56;;;;;;;2.87;1.77;;;-14.40;99.90;;;;;;5095375;28;20174;-69
2022/11/08 10:17:50;;;;;;;1.23;1.13;;;-13.30;99.90;;;;;;5087956;28;20898;-68
2022/11/08 10:20:18;;;;;;;2.00;1.00;;;-11.10;99.90;;;;;;5082436;28;20175;-69
2022/11/08 10:23:01;;;;;;;2.57;1.67;;;-13.80;99.90;;;;;;5093448;28;20181;-68
2022/11/08 10:25:59;;;;;;;5.70;1.37;;;-12.50;99.90;;;;;;5083274;28;20179;-70
2022/11/08 10:28:48;;;;;;;8.17;2.23;;;-15.50;99.90;;;;;;5080009;28;20183;-72
2022/11/08 10:31:17;;;;;;;2.83;1.77;;;-16.10;99.90;;;;;;5096429;28;20198;-71
2022/11/08 10:33:45;;;;;;;1.30;1.20;;;-16.70;99.90;;;;;;5095478;28;20787;-71
2022/11/08 10:36:32;;;;;;;4.57;1.47;;;-16.30;99.90;;;;;;5098236;28;20185;-74
2022/11/08 10:39:10;;;;;;;4.27;1.40;;;-15.80;99.90;;;;;;5095137;28;20186;-72
2022/11/08 10:42:09;;;;;;;1.97;1.57;;;-13.90;99.90;;;;;;5085083;28;20162;-75
2022/11/08 10:44:35;;;;;;;2.77;1.17;;;-20.40;99.90;;;;;;5092664;28;20602;-70
2022/11/08 10:47:05;;;;;;;3.93;2.20;;;-18.00;99.90;;;;;;5095702;28;20191;-74
2022/11/08 10:49:35;;;;;;;3.03;1.63;;;-18.60;99.90;;;;;;5091974;28;20286;-71
2022/11/08 10:52:29;;;;;;;3.23;1.40;;;-15.10;99.90;;;;;;5098222;28;20174;-70
2022/11/08 10:54:57;;;;;;;3.90;1.57;;;-14.10;99.90;;;;;;5082382;28;20183;-73
2022/11/08 10:57:30;;;;;;;8.73;2.80;;;-13.30;99.90;;;;;;5097668;28;20553;-69
2022/11/08 11:00:13;;;;;;;3.67;2.20;;;-9.30;99.90;;;;;;5098066;28;20339;-69
2022/11/08 11:02:39;;;;;;;5.97;2.13;;;-10.00;99.90;;;;;;5098467;28;20194;-70
2022/11/08 11:05:17;;;;;;;4.33;2.43;;;-13.00;99.90;;;;;;5098287;28;20293;-70
2022/11/08 11:07:45;;;;;;;1.30;1.20;;;-12.50;99.90;;;;;;5087241;28;20483;-71
2022/11/08 11:10:31;;;;;;;2.20;1.23;;;-11.30;99.90;;;;;;5085898;28;20199;-70
2022/11/08 11:13:12;;;;;;;3.60;1.37;;;-11.50;99.90;;;;;;5091760;28;20178;-71
2022/11/08 11:15:47;;;;;;;2.83;1.50;;;-7.80;99.90;;;;;;5088604;28;20587;-70
2022/11/08 11:18:28;;;;;;;2.37;1.10;;;-7.50;99.90;;;;;;5095615;28;20174;-70
2022/11/08 11:21:04;;;;;;;4.27;1.80;;;-10.90;99.90;;;;;;5094184;28;20243;-69
2022/11/08 11:23:34;;;;;;;2.00;1.80;;;-8.20;99.90;;;;;;5087069;28;20178;-70
2022/11/08 11:26:00;;;;;;;1.93;1.63;;;-15.70;99.90;;;;;;5097477;28;20214;-71
2022/11/08 11:28:26;;;;;;;1.90;1.50;;;-13.80;99.90;;;;;;5089883;28;20482;-68
2022/11/08 11:31:15;;;;;;;3.83;1.83;;;-9.60;99.90;;;;;;5093282;28;20220;-71
2022/11/08 11:33:45;;;;;;;2.67;1.93;;;-8.90;99.90;;;;;;5092354;28;20598;-70
2022/11/08 11:36:17;;;;;;;1.93;1.67;;;-12.80;99.90;;;;;;5101988;28;20186;-69
2022/11/08 11:39:10;;;;;;;2.80;1.83;;;-9.80;99.90;;;;;;5092584;28;20257;-71
2022/11/08 11:41:48;;;;;;;5.87;1.60;;;-10.20;99.90;;;;;;5088796;28;20668;-69
2022/11/08 11:44:29;;;;;;;7.13;2.03;;;-10.70;99.90;;;;;;5095986;28;20201;-69
2022/11/08 11:47:11;;;;;;;10.07;5.33;;;-10.10;99.90;;;;;;5087732;28;20174;-70
2022/11/08 11:49:41;;;;;;;2.20;2.00;;;-10.60;99.90;;;;;;5097483;28;20206;-71
2022/11/08 11:52:25;;;;;;;3.07;1.80;;;-11.10;99.90;;;;;;5097482;28;20183;-71
2022/11/08 11:54:51;;;;;;;3.17;1.40;;;-7.30;99.90;;;;;;5086690;28;20182;-70
2022/11/08 11:57:39;;;;;;;3.47;1.43;;;-10.10;99.90;;;;;;5097276;28;20179;-69
2022/11/08 12:00:12;;;;;;;5.43;1.47;;;-12.40;99.90;;;;;;5084744;28;20174;-69
2022/11/08 12:02:50;;;;;;;4.30;1.80;;;-9.50;99.90;;;;;;5096836;28;20194;-71
2022/11/08 12:05:37;;;;;;;4.53;2.03;;;-13.40;99.90;;;;;;5089967;28;20210;-70
2022/11/08 12:08:09;;;;;;;12.70;1.97;;;-10.10;99.90;;;;;;5091495;28;20189;-71
2022/11/08 12:11:12;;;;;;;3.13;1.40;;;-15.30;99.90;;;;;;5087601;28;20234;-71
2022/11/08 12:14:02;;;;;;;2.80;1.87;;;-30.20;99.90;;;;;;5085973;28;20178;-72
2022/11/08 12:16:30;;;;;;;7.00;1.97;;;-32.30;98.40;;;;;;5083803;28;20175;-70
2022/11/08 12:19:08;;;;;;;4.13;1.50;;;-40.00;95.80;;;;;;5096320;28;20257;-72
2022/11/08 12:21:37;;;;;;;2.70;1.20;;;-40.00;94.70;;;;;;5085102;28;20185;-71
2022/11/08 12:24:30;;;;;;;3.10;1.57;;;-28.40;99.40;;;;;;5096856;28;20224;-69
2022/11/08 12:27:03;;;;;;;3.20;1.90;;;-40.00;94.90;;;;;;5092416;28;20609;-70
2022/11/08 12:30:10;;;;;;;1.83;1.40;;;-40.00;94.70;;;;;;5095764;28;20202;-71
2022/11/08 12:33:20;;;;;;;1.73;1.33;;;-40.00;94.90;;;;;;5090346;28;20236;-70
2022/11/08 12:36:13;;;;;;;4.37;1.67;;;-31.70;97.90;;;;;;5094457;28;20187;-70
2022/11/08 12:38:45;;;;;;;6.90;1.33;;;-21.60;99.90;;;;;;5085448;28;20167;-70
2022/11/08 12:41:29;;;;;;;1.50;1.17;;;-22.30;99.90;;;;;;5096545;28;20186;-70
2022/11/08 12:44:18;;;;;;;2.90;1.30;;;-40.00;94.90;;;;;;5096389;28;20189;-70
2022/11/08 12:47:13;;;;;;;3.60;1.47;;;-19.60;99.90;;;;;;5096426;28;20194;-70
2022/11/08 12:50:16;;;;;;;6.73;2.03;;;-17.90;99.90;;;;;;5096130;28;20194;-72
2022/11/08 12:52:53;;;;;;;6.07;2.53;;;-26.50;99.30;;;;;;5093565;28;20207;-71
2022/11/08 12:55:24;;;;;;;4.63;1.93;;;-29.80;99.10;;;;;;5088362;28;20173;-71
2022/11/08 12:57:55;;;;;;;6.07;1.87;;;-24.00;99.90;;;;;;5084943;28;20194;-72
2022/11/08 13:00:21;;;;;;;2.13;1.90;;;-32.10;98.40;;;;;;5087979;28;20186;-71
2022/11/08 13:03:09;;;;;;;3.23;1.57;;;-38.50;95.80;;;;;;5089701;28;20197;-69
2022/11/08 13:06:00;;;;;;;3.30;1.70;;;-40.00;93.80;;;;;;5084395;28;20206;-71
2022/11/08 13:08:37;;;;;;;10.67;2.93;;;-39.90;94.40;;;;;;5095703;28;20182;-70
2022/11/08 13:11:08;;;;;;;5.70;1.97;;;-40.00;93.30;;;;;;5083396;28;20252;-70
2022/11/08 13:13:50;;;;;;;2.93;1.37;;;-40.00;92.80;;;;;;5089964;28;20182;-71
2022/11/08 13:16:17;;;;;;;2.50;1.33;;;-40.00;92.90;;;;;;5090409;28;20265;-69
2022/11/08 13:18:52;;;;;;;5.33;1.50;;;-40.00;94.00;;;;;;5089345;28;20253;-71
2022/11/08 13:21:26;;;;;;;5.00;1.93;;;-40.00;96.10;;;;;;5100622;28;20265;-69